Time;durP1;ratioP1;P1;durP2;ratioP2;P2;SDS_P1;SDS_P2;PMS_P1;PMS_P2;Temp;Humidity;BMP_temperature;BMP_pressure;BME280_temperature;BME280_humidity;BME280_pressure;Samples;Min_cycle;Max_cycle;Signal;HPM_P1;HPM_P2
2021/09/27 00:00:58;;;;;;;12.48;11.18;;;17.60;99.90;;;;;;2089717;28;20438;-70
2021/09/27 00:01:59;;;;;;;12.30;11.10;;;17.60;99.90;;;;;;2089814;28;20096;-70
2021/09/27 00:03:00;;;;;;;12.38;11.18;;;17.60;99.90;;;;;;2090026;28;20033;-70
2021/09/27 00:04:01;;;;;;;13.20;11.90;;;17.50;99.90;;;;;;2090287;28;20109;-68
2021/09/27 00:05:03;;;;;;;12.43;11.23;;;17.50;99.90;;;;;;2089768;28;20029;-68
2021/09/27 00:06:06;;;;;;;12.55;11.25;;;17.50;99.90;;;;;;2090180;28;20021;-69
2021/09/27 00:07:06;;;;;;;12.27;10.98;;;17.50;99.90;;;;;;2090388;28;20059;-70
2021/09/27 00:08:07;;;;;;;12.43;11.23;;;17.60;99.90;;;;;;2089786;28;20506;-69
2021/09/27 00:09:08;;;;;;;13.00;11.70;;;17.50;99.90;;;;;;2089474;28;20028;-69
2021/09/27 00:10:12;;;;;;;12.80;11.50;;;17.50;99.90;;;;;;2089669;28;20021;-69
2021/09/27 00:11:20;;;;;;;12.68;11.38;;;17.50;99.90;;;;;;2090047;28;20029;-69
2021/09/27 00:12:21;;;;;;;12.65;11.43;;;17.50;99.90;;;;;;2090019;28;20036;-69
2021/09/27 00:13:25;;;;;;;12.90;11.43;;;17.50;99.90;;;;;;2089692;28;20102;-68
2021/09/27 00:14:26;;;;;;;13.80;12.40;;;17.50;99.90;;;;;;2089881;28;20449;-68
2021/09/27 00:15:31;;;;;;;13.82;12.32;;;17.50;99.90;;;;;;2089277;28;20195;-67
2021/09/27 00:16:32;;;;;;;13.73;12.23;;;17.50;99.90;;;;;;2089407;28;20478;-67
2021/09/27 00:17:33;;;;;;;13.18;11.88;;;17.50;99.90;;;;;;2089562;28;20034;-69
2021/09/27 00:18:34;;;;;;;12.88;11.50;;;17.50;99.90;;;;;;2089940;28;20033;-68
2021/09/27 00:19:35;;;;;;;13.38;11.98;;;17.50;99.90;;;;;;2089859;28;20039;-68
2021/09/27 00:20:40;;;;;;;13.07;11.77;;;17.50;99.90;;;;;;2089519;28;20115;-69
2021/09/27 00:21:40;;;;;;;13.23;11.93;;;17.50;99.90;;;;;;2089901;28;20080;-69
2021/09/27 00:22:41;;;;;;;13.13;11.82;;;17.50;99.90;;;;;;2089825;28;20021;-69
2021/09/27 00:23:42;;;;;;;13.32;12.02;;;17.50;99.90;;;;;;2089159;28;20123;-69
2021/09/27 00:24:43;;;;;;;13.32;11.93;;;17.50;99.90;;;;;;2089030;28;20033;-68
2021/09/27 00:25:45;;;;;;;13.68;12.25;;;17.50;99.90;;;;;;2089887;28;20029;-69
2021/09/27 00:26:46;;;;;;;13.07;11.77;;;17.50;99.90;;;;;;2089807;28;20478;-69
2021/09/27 00:27:47;;;;;;;13.60;12.20;;;17.50;99.90;;;;;;2088639;28;20029;-69
2021/09/27 00:28:48;;;;;;;14.23;12.48;;;17.50;99.90;;;;;;2089386;28;20521;-69
2021/09/27 00:29:48;;;;;;;13.68;12.18;;;17.50;99.90;;;;;;2089636;28;20079;-69
2021/09/27 00:30:49;;;;;;;13.35;11.95;;;17.50;99.90;;;;;;2089570;28;20025;-68
2021/09/27 00:31:53;;;;;;;13.35;11.95;;;17.40;99.90;;;;;;2089799;28;20037;-69
2021/09/27 00:33:00;;;;;;;14.77;12.77;;;17.40;99.90;;;;;;2089087;28;20033;-68
2021/09/27 00:34:01;;;;;;;15.00;13.18;;;17.40;99.90;;;;;;2089237;28;20441;-68
2021/09/27 00:35:03;;;;;;;16.65;14.55;;;17.40;99.90;;;;;;2089141;28;20402;-70
2021/09/27 00:36:04;;;;;;;17.60;15.48;;;17.40;99.90;;;;;;2089032;28;20032;-68
2021/09/27 00:37:05;;;;;;;15.75;14.05;;;17.30;99.90;;;;;;2088675;28;20037;-68
2021/09/27 00:38:07;;;;;;;15.75;13.82;;;17.30;99.90;;;;;;2089301;28;20064;-68
2021/09/27 00:39:11;;;;;;;15.32;13.63;;;17.30;99.90;;;;;;2089695;28;20028;-68
2021/09/27 00:40:18;;;;;;;19.27;14.38;;;17.30;99.90;;;;;;2089327;28;20116;-68
2021/09/27 00:41:20;;;;;;;15.77;14.18;;;17.30;99.90;;;;;;2089637;28;20108;-68
2021/09/27 00:42:21;;;;;;;16.20;14.02;;;17.30;99.90;;;;;;2089067;28;20502;-69
2021/09/27 00:43:23;;;;;;;15.70;14.10;;;17.20;99.90;;;;;;2080656;28;20040;-69
2021/09/27 00:44:23;;;;;;;15.10;13.50;;;17.20;99.90;;;;;;2088979;28;20044;-69
2021/09/27 00:45:31;;;;;;;14.93;13.32;;;17.20;99.90;;;;;;2089578;28;20047;-68
2021/09/27 00:46:32;;;;;;;14.10;12.70;;;17.20;99.90;;;;;;2088858;28;20171;-69
2021/09/27 00:47:33;;;;;;;14.75;13.25;;;17.20;99.90;;;;;;2088401;28;20426;-69
2021/09/27 00:48:34;;;;;;;15.27;13.68;;;17.20;99.90;;;;;;2089567;28;20021;-68
2021/09/27 00:49:35;;;;;;;14.30;12.85;;;17.20;99.90;;;;;;2089529;28;20029;-68
2021/09/27 00:50:42;;;;;;;14.20;12.70;;;17.20;99.90;;;;;;2088753;28;20398;-68
2021/09/27 00:51:44;;;;;;;14.40;12.73;;;17.20;99.90;;;;;;2081641;28;20030;-68
2021/09/27 00:52:48;;;;;;;14.30;12.80;;;17.20;99.90;;;;;;2089080;28;20025;-68
2021/09/27 00:53:56;;;;;;;14.45;12.90;;;17.20;99.90;;;;;;2089609;28;20104;-69
2021/09/27 00:54:57;;;;;;;14.32;12.73;;;17.20;99.90;;;;;;2089801;28;20037;-69
2021/09/27 00:55:58;;;;;;;14.13;12.73;;;17.20;99.90;;;;;;2089749;28;20040;-69
2021/09/27 00:57:21;;;;;;;14.27;12.77;;;17.20;99.90;;;;;;2088850;28;20092;-69
2021/09/27 00:58:23;;;;;;;14.30;12.85;;;17.20;99.90;;;;;;2089386;28;20033;-69
2021/09/27 00:59:25;;;;;;;14.30;12.88;;;17.20;99.90;;;;;;2089733;28;20032;-69
2021/09/27 01:00:27;;;;;;;14.00;12.40;;;17.10;99.90;;;;;;2088546;28;20028;-69
2021/09/27 01:01:28;;;;;;;13.52;12.23;;;17.20;99.90;;;;;;2081012;28;20129;-69
2021/09/27 01:02:29;;;;;;;13.13;11.93;;;17.20;99.90;;;;;;2089070;28;20072;-68
2021/09/27 01:03:30;;;;;;;13.32;11.95;;;17.20;99.90;;;;;;2089015;28;20028;-69
2021/09/27 01:04:31;;;;;;;13.35;11.95;;;17.20;99.90;;;;;;2080688;28;20038;-69
2021/09/27 01:05:36;;;;;;;13.57;12.13;;;17.20;99.90;;;;;;2089050;28;20458;-68
2021/09/27 01:07:08;;;;;;;13.00;11.70;;;17.20;99.90;;;;;;2089010;28;20025;-69
2021/09/27 01:08:27;;;;;;;12.60;11.35;;;17.20;99.90;;;;;;2089283;28;20077;-70
2021/09/27 01:09:42;;;;;;;13.27;11.98;;;17.20;99.90;;;;;;2088939;28;20497;-69
2021/09/27 01:11:10;;;;;;;13.35;11.90;;;17.20;99.90;;;;;;2088289;28;20029;-69
2021/09/27 01:12:26;;;;;;;13.57;12.18;;;17.20;99.90;;;;;;2089673;28;20029;-69
2021/09/27 01:13:48;;;;;;;13.82;12.40;;;17.30;99.90;;;;;;2089622;28;20033;-68
2021/09/27 01:15:08;;;;;;;13.52;12.13;;;17.20;99.90;;;;;;2089479;28;20025;-68
2021/09/27 01:16:55;;;;;;;13.38;12.07;;;17.30;99.90;;;;;;2080595;28;20065;-69
2021/09/27 01:18:36;;;;;;;13.80;12.40;;;17.30;99.90;;;;;;2067776;28;20076;-69
2021/09/27 01:19:53;;;;;;;13.85;12.45;;;17.30;99.90;;;;;;2089201;28;20020;-70
2021/09/27 01:21:13;;;;;;;13.55;12.15;;;17.30;99.90;;;;;;2089439;28;20024;-69
2021/09/27 01:22:33;;;;;;;;;;;17.30;99.90;;;;;;2090198;28;20021;-69
2021/09/27 01:24:15;;;;;;;15.45;13.80;;;17.30;99.90;;;;;;2089468;28;19904;-68
2021/09/27 01:25:27;;;;;;;17.25;14.07;;;17.30;99.90;;;;;;2088847;28;20021;-69
2021/09/27 01:26:39;;;;;;;15.88;13.82;;;17.30;99.90;;;;;;2088776;28;20025;-69
2021/09/27 01:27:47;;;;;;;15.27;13.68;;;17.30;99.90;;;;;;2080087;28;20017;-69
2021/09/27 01:29:06;;;;;;;16.35;14.32;;;17.30;99.90;;;;;;2074011;28;20553;-69
2021/09/27 01:30:12;;;;;;;15.70;14.00;;;17.30;99.90;;;;;;2088613;28;20477;-69
2021/09/27 01:31:25;;;;;;;16.13;14.13;;;17.30;99.90;;;;;;2089308;28;20029;-69
2021/09/27 01:32:48;;;;;;;16.30;14.38;;;17.30;99.90;;;;;;2080527;28;20036;-68
2021/09/27 01:33:48;;;;;;;18.33;15.43;;;17.30;99.90;;;;;;2078307;28;20109;-68
2021/09/27 01:34:51;;;;;;;16.55;14.70;;;17.30;99.90;;;;;;2088757;28;20533;-68
2021/09/27 01:36:13;;;;;;;17.05;15.25;;;17.30;99.90;;;;;;2089285;28;20036;-68
2021/09/27 01:37:52;;;;;;;17.10;15.30;;;17.30;99.90;;;;;;2088567;28;20037;-68
2021/09/27 01:39:13;;;;;;;20.83;17.10;;;17.30;99.90;;;;;;2089593;28;20091;-69
2021/09/27 01:40:45;;;;;;;17.45;15.60;;;17.30;99.90;;;;;;2089487;28;20163;-68
2021/09/27 01:42:12;;;;;;;16.42;14.60;;;17.30;99.90;;;;;;2089614;28;20107;-69
2021/09/27 01:43:21;;;;;;;19.55;14.82;;;17.30;99.90;;;;;;2088693;28;20128;-68
2021/09/27 01:44:46;;;;;;;16.75;14.98;;;17.30;99.90;;;;;;2089021;28;20033;-68
2021/09/27 01:46:02;;;;;;;16.25;14.55;;;17.30;99.90;;;;;;2089628;28;20033;-68
2021/09/27 01:47:31;;;;;;;16.50;14.13;;;17.40;99.90;;;;;;2088732;28;20064;-68
2021/09/27 01:48:59;;;;;;;15.52;13.93;;;17.30;99.90;;;;;;2074833;28;20044;-69
2021/09/27 01:50:07;;;;;;;16.85;15.05;;;17.30;99.90;;;;;;2089003;28;20033;-70
2021/09/27 01:51:11;;;;;;;17.60;15.25;;;17.30;99.90;;;;;;2088995;28;20032;-69
2021/09/27 01:52:15;;;;;;;17.35;15.32;;;17.30;99.90;;;;;;2089218;28;20037;-68
2021/09/27 01:53:23;;;;;;;16.95;14.45;;;17.30;99.90;;;;;;2089223;28;20482;-69
2021/09/27 01:54:43;;;;;;;16.52;14.82;;;17.30;99.90;;;;;;2089748;28;20522;-67
2021/09/27 01:55:46;;;;;;;17.80;14.93;;;17.30;99.90;;;;;;2097828;28;20491;-69
2021/09/27 01:56:55;;;;;;;15.50;13.77;;;17.40;99.90;;;;;;2097029;28;20498;-69
2021/09/27 01:58:20;;;;;;;17.77;14.52;;;17.40;99.90;;;;;;2089441;28;20540;-70
2021/09/27 01:59:47;;;;;;;20.02;15.93;;;17.40;99.90;;;;;;2090344;28;20379;-71
2021/09/27 02:00:59;;;;;;;19.30;14.93;;;17.30;99.90;;;;;;2089638;28;20029;-70
2021/09/27 02:02:30;;;;;;;16.02;14.10;;;17.40;99.90;;;;;;2089706;28;20086;-70
2021/09/27 02:03:44;;;;;;;15.77;13.82;;;17.40;99.90;;;;;;2073331;28;20061;-69
2021/09/27 02:05:25;;;;;;;15.15;13.65;;;17.40;99.90;;;;;;2089446;28;20166;-71
2021/09/27 02:06:35;;;;;;;;;;;17.40;99.90;;;;;;2075357;28;20053;-70
2021/09/27 02:07:47;;;;;;;17.02;13.70;;;17.40;99.90;;;;;;2087820;28;20587;-70
2021/09/27 02:08:59;;;;;;;14.75;12.60;;;17.30;99.90;;;;;;2088622;28;20056;-69
2021/09/27 02:10:23;;;;;;;14.38;12.93;;;17.40;99.90;;;;;;2088095;28;20025;-69
2021/09/27 02:11:27;;;;;;;13.85;12.45;;;17.30;99.90;;;;;;2082904;28;20106;-69
2021/09/27 02:12:49;;;;;;;13.68;12.27;;;17.40;99.90;;;;;;2088461;28;20033;-69
2021/09/27 02:14:21;;;;;;;14.18;12.77;;;17.40;99.90;;;;;;2080192;28;20513;-70
2021/09/27 02:15:39;;;;;;;13.13;11.73;;;17.30;99.90;;;;;;2080336;28;20033;-70
2021/09/27 02:17:01;;;;;;;13.23;11.93;;;17.30;99.90;;;;;;2090487;28;20059;-70
2021/09/27 02:18:12;;;;;;;14.05;12.55;;;17.30;99.90;;;;;;2093437;28;20163;-70
2021/09/27 02:19:43;;;;;;;14.73;12.68;;;17.30;99.90;;;;;;2088149;28;20116;-70
2021/09/27 02:20:50;;;;;;;14.43;12.77;;;17.30;99.90;;;;;;2088332;28;20795;-70
2021/09/27 02:21:54;;;;;;;13.63;12.20;;;17.30;99.90;;;;;;2088771;28;20037;-71
2021/09/27 02:22:57;;;;;;;15.30;13.50;;;17.30;99.90;;;;;;2087670;28;20040;-70
2021/09/27 02:24:18;;;;;;;16.63;14.73;;;17.30;99.90;;;;;;2080119;28;20104;-70
2021/09/27 02:25:21;;;;;;;;;;;17.30;99.90;;;;;;2089029;28;20037;-70
2021/09/27 02:26:22;;;;;;;18.00;15.02;;;17.30;99.90;;;;;;2088863;28;20004;-70
2021/09/27 02:27:23;;;;;;;15.90;14.20;;;17.30;99.90;;;;;;2088473;28;20037;-70
2021/09/27 02:28:25;;;;;;;15.38;13.75;;;17.30;99.90;;;;;;2088313;28;20460;-70
2021/09/27 02:29:26;;;;;;;14.35;12.95;;;17.30;99.90;;;;;;2080551;28;20515;-70
2021/09/27 02:30:55;;;;;;;14.57;13.10;;;17.30;99.90;;;;;;2088279;28;20067;-70
2021/09/27 02:32:06;;;;;;;15.27;13.68;;;17.30;99.90;;;;;;2088612;28;20513;-70
2021/09/27 02:33:25;;;;;;;15.52;13.85;;;17.30;99.90;;;;;;2089059;28;20021;-68
2021/09/27 02:34:36;;;;;;;16.13;14.02;;;17.30;99.90;;;;;;2088245;28;20033;-69
2021/09/27 02:35:48;;;;;;;16.25;14.35;;;17.30;99.90;;;;;;2088423;28;20025;-69
2021/09/27 02:36:59;;;;;;;15.48;13.95;;;17.30;99.90;;;;;;2079940;28;20132;-69
2021/09/27 02:38:17;;;;;;;15.65;13.40;;;17.30;99.90;;;;;;2081137;28;20052;-69
2021/09/27 02:39:28;;;;;;;15.93;13.82;;;17.20;99.90;;;;;;2088910;28;20027;-69
2021/09/27 02:40:36;;;;;;;15.55;13.38;;;17.30;99.90;;;;;;2088562;28;20075;-69
2021/09/27 02:41:49;;;;;;;15.38;13.77;;;17.30;99.90;;;;;;2088962;28;20032;-69
2021/09/27 02:42:53;;;;;;;14.80;13.23;;;17.30;99.90;;;;;;2088949;28;20117;-69
2021/09/27 02:43:54;;;;;;;15.05;13.50;;;17.30;99.90;;;;;;2088617;28;20078;-69
2021/09/27 02:44:55;;;;;;;15.02;13.43;;;17.30;99.90;;;;;;2088697;28;20543;-69
2021/09/27 02:45:56;;;;;;;15.13;13.60;;;17.30;99.90;;;;;;2088853;28;20036;-69
2021/09/27 02:46:57;;;;;;;16.50;14.52;;;17.20;99.90;;;;;;2088844;28;20025;-70
2021/09/27 02:48:10;;;;;;;15.15;13.38;;;17.30;99.90;;;;;;2088083;28;20053;-70
2021/09/27 02:49:13;;;;;;;15.02;13.43;;;17.30;99.90;;;;;;2088228;28;20033;-69
2021/09/27 02:50:20;;;;;;;14.90;13.30;;;17.30;99.90;;;;;;2087856;28;20025;-69
2021/09/27 02:51:22;;;;;;;13.90;12.50;;;17.30;99.90;;;;;;2088740;28;20099;-69
2021/09/27 02:52:24;;;;;;;14.18;12.77;;;17.30;99.90;;;;;;2088711;28;20018;-69
2021/09/27 02:53:25;;;;;;;14.48;13.00;;;17.30;99.90;;;;;;2088654;28;20029;-69
2021/09/27 02:54:39;;;;;;;13.85;12.45;;;17.30;99.90;;;;;;2088638;28;20478;-70
2021/09/27 02:56:12;;;;;;;14.80;13.30;;;17.30;99.90;;;;;;2088794;28;20425;-70
2021/09/27 02:57:31;;;;;;;16.27;13.40;;;17.30;99.90;;;;;;2071383;28;20523;-70
2021/09/27 02:59:05;;;;;;;15.60;14.00;;;17.30;99.90;;;;;;2088752;28;20044;-70
2021/09/27 03:00:12;;;;;;;15.05;13.45;;;17.30;99.90;;;;;;2088522;28;20032;-70
2021/09/27 03:01:21;;;;;;;14.77;13.18;;;17.30;99.90;;;;;;2088043;28;20021;-70
2021/09/27 03:02:33;;;;;;;15.90;13.73;;;17.20;99.90;;;;;;2088248;28;20021;-70
2021/09/27 03:03:42;;;;;;;15.90;14.18;;;17.20;99.90;;;;;;2088564;28;20029;-71
2021/09/27 03:05:08;;;;;;;15.95;14.25;;;17.30;99.90;;;;;;2088167;28;20525;-70
2021/09/27 03:06:22;;;;;;;16.27;14.57;;;17.20;99.90;;;;;;2083135;28;20118;-70
2021/09/27 03:08:03;;;;;;;16.23;14.52;;;17.20;99.90;;;;;;2087729;28;20485;-70
2021/09/27 03:09:13;;;;;;;17.63;15.43;;;17.30;99.90;;;;;;2088685;28;20040;-70
2021/09/27 03:10:24;;;;;;;17.38;15.38;;;17.30;99.90;;;;;;2088325;28;20029;-70
2021/09/27 03:11:24;;;;;;;17.92;16.02;;;17.20;99.90;;;;;;2087971;28;20025;-70
2021/09/27 03:12:34;;;;;;;17.90;15.93;;;17.20;99.90;;;;;;2087919;28;20029;-72
2021/09/27 03:13:49;;;;;;;18.05;15.32;;;17.20;99.90;;;;;;2088620;28;20028;-70
2021/09/27 03:15:20;;;;;;;18.58;15.95;;;17.20;99.90;;;;;;2088733;28;20021;-70
2021/09/27 03:16:28;;;;;;;;;;;17.20;99.90;;;;;;2089042;28;20039;-70
2021/09/27 03:17:59;;;;;;;16.55;14.80;;;17.20;99.90;;;;;;2088110;28;20282;-70
2021/09/27 03:19:10;;;;;;;16.20;14.38;;;17.20;99.90;;;;;;2088628;28;20108;-70
2021/09/27 03:20:31;;;;;;;16.27;14.13;;;17.20;99.90;;;;;;2088451;28;20044;-69
2021/09/27 03:21:51;;;;;;;;;;;17.10;99.90;;;;;;2089221;28;20036;-69
2021/09/27 03:23:08;;;;;;;16.73;14.90;;;17.10;99.90;;;;;;2088123;28;19958;-69
2021/09/27 03:24:30;;;;;;;17.05;15.25;;;17.10;99.90;;;;;;2082133;28;20041;-69
2021/09/27 03:25:47;;;;;;;16.63;14.38;;;17.10;99.90;;;;;;2088238;28;20402;-70
2021/09/27 03:27:01;;;;;;;16.73;14.95;;;17.10;99.90;;;;;;2088718;28;20079;-70
2021/09/27 03:28:24;;;;;;;17.75;15.52;;;17.10;99.90;;;;;;2088312;28;20147;-69
2021/09/27 03:29:41;;;;;;;16.80;14.70;;;17.10;99.90;;;;;;2088541;28;20501;-69
2021/09/27 03:30:51;;;;;;;15.90;14.25;;;17.00;99.90;;;;;;2088341;28;20075;-69
2021/09/27 03:32:09;;;;;;;16.42;14.73;;;17.00;99.90;;;;;;2088607;28;20029;-69
2021/09/27 03:33:32;;;;;;;16.77;14.88;;;17.00;99.90;;;;;;2088691;28;20071;-69
2021/09/27 03:34:45;;;;;;;19.25;15.40;;;17.00;99.90;;;;;;2085222;28;20045;-68
2021/09/27 03:35:56;;;;;;;23.65;18.77;;;17.00;99.90;;;;;;2090381;28;20028;-69
2021/09/27 03:37:19;;;;;;;;;;;17.00;99.90;;;;;;2091151;28;20068;-69
2021/09/27 03:38:51;;;;;;;22.65;17.60;;;17.00;99.90;;;;;;2084397;28;20133;-68
2021/09/27 03:40:34;;;;;;;25.55;17.60;;;17.00;99.90;;;;;;2090222;28;20827;-68
2021/09/27 03:41:46;;;;;;;22.33;16.15;;;17.00;99.90;;;;;;2072608;28;20104;-69
2021/09/27 03:43:09;;;;;;;24.42;16.60;;;17.00;99.90;;;;;;2090274;28;20466;-68
2021/09/27 03:44:39;;;;;;;19.80;16.10;;;16.90;99.90;;;;;;2090004;28;20120;-69
2021/09/27 03:46:22;;;;;;;20.55;16.52;;;16.90;99.90;;;;;;2090496;28;20075;-69
2021/09/27 03:47:41;;;;;;;21.77;17.15;;;16.90;99.90;;;;;;2072355;28;20109;-69
2021/09/27 03:48:51;;;;;;;21.35;17.08;;;16.90;99.90;;;;;;2072675;28;20049;-69
2021/09/27 03:50:17;;;;;;;20.35;17.23;;;16.90;99.90;;;;;;2083951;28;20502;-69
2021/09/27 03:51:32;;;;;;;19.42;16.55;;;16.90;99.90;;;;;;2089643;28;20044;-69
2021/09/27 03:53:01;;;;;;;20.40;16.52;;;16.90;99.90;;;;;;2089603;28;20025;-69
2021/09/27 03:54:10;;;;;;;21.20;16.13;;;16.90;99.90;;;;;;2090113;28;20123;-69
2021/09/27 03:55:32;;;;;;;18.88;15.93;;;16.80;99.90;;;;;;2090051;28;20040;-70
2021/09/27 03:56:59;;;;;;;18.23;15.40;;;16.80;99.90;;;;;;2090063;28;20762;-69
2021/09/27 03:58:18;;;;;;;19.55;16.05;;;16.80;99.90;;;;;;2089383;28;20540;-69
2021/09/27 03:59:48;;;;;;;18.05;15.82;;;16.80;99.90;;;;;;2090120;28;20035;-69
2021/09/27 04:01:15;;;;;;;18.63;15.57;;;16.70;99.90;;;;;;2089290;28;20032;-69
2021/09/27 04:02:31;;;;;;;21.42;16.48;;;16.70;99.90;;;;;;2089657;28;20756;-69
2021/09/27 04:04:11;;;;;;;21.60;17.10;;;16.70;99.90;;;;;;2089247;28;20025;-69
2021/09/27 04:05:41;;;;;;;19.88;16.00;;;16.70;99.90;;;;;;2070976;28;20387;-69
2021/09/27 04:06:51;;;;;;;20.00;16.30;;;16.70;99.90;;;;;;2089476;28;20032;-69
2021/09/27 04:08:07;;;;;;;20.25;16.65;;;16.70;99.90;;;;;;2088857;28;20029;-69
2021/09/27 04:09:11;;;;;;;22.00;17.70;;;16.70;99.90;;;;;;2089946;28;20036;-70
2021/09/27 04:10:56;;;;;;;21.98;17.90;;;16.70;99.90;;;;;;2089651;28;20083;-70
2021/09/27 04:12:11;;;;;;;20.95;16.92;;;16.70;99.90;;;;;;2090024;28;20103;-70
2021/09/27 04:13:28;;;;;;;20.45;16.67;;;16.70;99.90;;;;;;2089338;28;20036;-70
2021/09/27 04:14:42;;;;;;;19.02;16.08;;;16.70;99.90;;;;;;2083654;28;20028;-70
2021/09/27 04:15:56;;;;;;;18.60;15.80;;;16.70;99.90;;;;;;2085770;28;20100;-70
2021/09/27 04:17:11;;;;;;;19.08;15.90;;;16.70;99.90;;;;;;2093936;28;20367;-69
2021/09/27 04:18:57;;;;;;;19.75;16.02;;;16.70;99.90;;;;;;2093530;28;20029;-69
2021/09/27 04:20:17;;;;;;;19.10;15.95;;;16.70;99.90;;;;;;2085623;28;20041;-69
2021/09/27 04:21:48;;;;;;;19.38;16.48;;;16.60;99.90;;;;;;2083822;28;20033;-69
2021/09/27 04:23:06;;;;;;;21.73;17.80;;;16.60;99.90;;;;;;2090642;28;20028;-69
2021/09/27 04:24:37;;;;;;;20.70;17.17;;;16.60;99.90;;;;;;2090398;28;20029;-69
2021/09/27 04:26:20;;;;;;;20.92;17.38;;;16.60;99.90;;;;;;2090193;28;20021;-69
2021/09/27 04:27:58;;;;;;;25.52;18.75;;;16.60;99.90;;;;;;2089676;28;20589;-70
2021/09/27 04:29:20;;;;;;;23.08;18.90;;;16.60;99.90;;;;;;2089745;28;20575;-70
2021/09/27 04:30:24;;;;;;;21.33;17.77;;;16.60;99.90;;;;;;2089137;28;20123;-70
2021/09/27 04:31:44;;;;;;;25.92;20.23;;;16.60;99.90;;;;;;2089329;28;20028;-70
2021/09/27 04:32:47;;;;;;;24.00;19.05;;;16.60;99.90;;;;;;2089951;28;20032;-70
2021/09/27 04:34:12;;;;;;;22.40;19.00;;;16.60;99.90;;;;;;2089122;28;20398;-70
2021/09/27 04:35:36;;;;;;;22.00;18.15;;;16.60;99.90;;;;;;2089503;28;20025;-70
2021/09/27 04:36:45;;;;;;;25.35;20.90;;;16.60;99.90;;;;;;2072320;28;20137;-70
2021/09/27 04:37:47;;;;;;;27.75;21.58;;;16.60;99.90;;;;;;2096928;28;20028;-70
2021/09/27 04:38:50;;;;;;;27.05;21.73;;;16.60;99.90;;;;;;2097309;28;20013;-70
2021/09/27 04:39:51;;;;;;;26.58;21.48;;;16.60;99.90;;;;;;2088873;28;20102;-70
2021/09/27 04:41:03;;;;;;;27.70;22.05;;;16.60;99.90;;;;;;2089172;28;20461;-70
2021/09/27 04:42:04;;;;;;;29.80;21.08;;;16.60;99.90;;;;;;2089737;28;20036;-69
2021/09/27 04:43:16;;;;;;;25.58;20.98;;;16.60;99.90;;;;;;2089149;28;20021;-70
2021/09/27 04:44:53;;;;;;;27.27;21.95;;;16.60;99.90;;;;;;2089225;28;20124;-69
2021/09/27 04:46:31;;;;;;;25.42;20.42;;;16.60;99.90;;;;;;2088956;28;20502;-69
2021/09/27 04:47:42;;;;;;;25.55;20.20;;;16.60;99.90;;;;;;2089230;28;20461;-69
2021/09/27 04:48:57;;;;;;;23.65;19.60;;;16.60;99.90;;;;;;2089556;28;20028;-69
2021/09/27 04:50:16;;;;;;;22.10;18.92;;;16.60;99.90;;;;;;2089505;28;20037;-69
2021/09/27 04:51:38;;;;;;;23.55;19.00;;;16.60;99.90;;;;;;2088977;28;20478;-69
2021/09/27 04:53:16;;;;;;;24.17;19.77;;;16.50;99.90;;;;;;2083769;28;20074;-69
2021/09/27 04:54:50;;;;;;;20.88;18.40;;;16.50;99.90;;;;;;2077730;28;20022;-69
2021/09/27 04:56:05;;;;;;;21.95;18.70;;;16.50;99.90;;;;;;2085634;28;20101;-69
2021/09/27 04:57:28;;;;;;;22.25;18.08;;;16.50;99.90;;;;;;2089614;28;20136;-69
2021/09/27 04:58:41;;;;;;;24.20;19.25;;;16.50;99.90;;;;;;2089800;28;20068;-69
2021/09/27 04:59:53;;;;;;;23.98;18.83;;;16.50;99.90;;;;;;2089085;28;20029;-70
2021/09/27 05:01:25;;;;;;;22.88;18.98;;;16.50;99.90;;;;;;2089135;28;20061;-70
2021/09/27 05:02:58;;;;;;;23.80;19.38;;;16.50;99.90;;;;;;2089569;28;20033;-69
2021/09/27 05:04:33;;;;;;;24.13;19.67;;;16.50;99.90;;;;;;2089401;28;20040;-70
2021/09/27 05:06:00;;;;;;;23.85;19.40;;;16.40;99.90;;;;;;2089128;28;20037;-69
2021/09/27 05:07:49;;;;;;;22.42;19.17;;;16.40;99.90;;;;;;2089196;28;20040;-69
2021/09/27 05:09:04;;;;;;;24.15;19.52;;;16.40;99.90;;;;;;2072037;28;20040;-69
2021/09/27 05:10:30;;;;;;;24.23;19.70;;;16.40;99.90;;;;;;2079082;28;20175;-69
2021/09/27 05:11:39;;;;;;;22.83;19.48;;;16.40;99.90;;;;;;2089456;28;20277;-70
2021/09/27 05:13:09;;;;;;;29.07;22.10;;;16.40;99.90;;;;;;2080806;28;20113;-69
2021/09/27 05:14:12;;;;;;;28.60;22.20;;;16.40;99.90;;;;;;2088015;28;20636;-70
2021/09/27 05:15:22;;;;;;;29.90;23.27;;;16.50;99.90;;;;;;2088803;28;20033;-69
2021/09/27 05:16:49;;;;;;;27.85;22.20;;;16.50;99.90;;;;;;2081877;28;20564;-69
2021/09/27 05:18:28;;;;;;;25.90;20.65;;;16.40;99.90;;;;;;2088703;28;20044;-70
2021/09/27 05:19:57;;;;;;;26.92;20.63;;;16.40;99.90;;;;;;2089582;28;20037;-70
2021/09/27 05:21:38;;;;;;;28.17;21.77;;;16.40;99.90;;;;;;2089775;28;20071;-69
2021/09/27 05:22:47;;;;;;;26.05;20.40;;;16.40;99.90;;;;;;2087703;28;20043;-69
2021/09/27 05:24:07;;;;;;;27.10;20.88;;;16.40;99.90;;;;;;2090040;28;20048;-69
2021/09/27 05:25:19;;;;;;;28.13;20.92;;;16.40;99.90;;;;;;2090845;28;20079;-69
2021/09/27 05:26:28;;;;;;;26.02;20.67;;;16.50;99.90;;;;;;2090295;28;20037;-70
2021/09/27 05:27:41;;;;;;;28.42;22.33;;;16.50;99.90;;;;;;2089526;28;20033;-70
2021/09/27 05:29:24;;;;;;;28.50;22.20;;;16.50;99.90;;;;;;2088657;28;20123;-70
2021/09/27 05:30:58;;;;;;;25.90;20.50;;;16.50;99.90;;;;;;2089103;28;20031;-69
2021/09/27 05:32:27;;;;;;;26.52;20.27;;;16.60;99.90;;;;;;2089405;28;20389;-70
2021/09/27 05:33:59;;;;;;;25.92;20.40;;;16.60;99.90;;;;;;2089103;28;20028;-71
2021/09/27 05:35:05;;;;;;;26.60;20.77;;;16.60;99.90;;;;;;2089278;28;20033;-71
2021/09/27 05:36:43;;;;;;;25.15;20.80;;;16.60;99.90;;;;;;2089272;28;20032;-70
2021/09/27 05:38:03;;;;;;;26.42;21.48;;;16.60;99.90;;;;;;2089151;28;20032;-70
2021/09/27 05:39:37;;;;;;;25.63;21.40;;;16.70;99.90;;;;;;2089394;28;20111;-70
2021/09/27 05:41:19;;;;;;;26.67;21.40;;;16.70;99.90;;;;;;2088713;28;20016;-70
2021/09/27 05:42:48;;;;;;;26.02;20.70;;;16.70;99.90;;;;;;2085825;28;20029;-71
2021/09/27 05:44:00;;;;;;;27.02;20.92;;;16.70;99.90;;;;;;2090002;28;20108;-72
2021/09/27 05:45:25;;;;;;;25.17;20.42;;;16.70;99.90;;;;;;2090085;28;20044;-72
2021/09/27 05:46:50;;;;;;;25.23;20.15;;;16.70;99.90;;;;;;2090339;28;20021;-72
2021/09/27 05:47:56;;;;;;;23.10;19.73;;;16.70;99.90;;;;;;2089200;28;20029;-71
2021/09/27 05:49:19;;;;;;;23.90;20.05;;;16.70;99.90;;;;;;2089641;28;20493;-71
2021/09/27 05:50:44;;;;;;;23.52;20.02;;;16.70;99.90;;;;;;2090836;28;20036;-71
2021/09/27 05:52:10;;;;;;;23.10;19.92;;;16.70;99.90;;;;;;2093096;28;20084;-71
2021/09/27 05:53:36;;;;;;;24.60;20.67;;;16.70;99.90;;;;;;2096256;28;20075;-71
2021/09/27 05:54:49;;;;;;;25.73;20.55;;;16.70;99.90;;;;;;2096147;28;20028;-69
2021/09/27 05:56:10;;;;;;;23.65;20.40;;;16.80;99.90;;;;;;2093770;28;20031;-68
2021/09/27 05:57:43;;;;;;;22.25;19.45;;;16.70;99.90;;;;;;2073475;28;20131;-70
2021/09/27 05:59:02;;;;;;;23.88;20.02;;;16.80;99.90;;;;;;2089038;28;20021;-69
2021/09/27 06:00:19;;;;;;;24.98;20.52;;;16.80;99.90;;;;;;2088803;28;20067;-71
2021/09/27 06:01:36;;;;;;;23.80;19.73;;;16.80;99.90;;;;;;2088559;28;20508;-70
2021/09/27 06:02:45;;;;;;;24.50;19.67;;;16.80;99.90;;;;;;2088664;28;20025;-71
2021/09/27 06:04:12;;;;;;;23.50;19.83;;;16.80;99.90;;;;;;2088912;28;20029;-71
2021/09/27 06:05:45;;;;;;;24.17;20.23;;;16.80;99.90;;;;;;2085996;28;20776;-71
2021/09/27 06:07:05;;;;;;;22.67;19.70;;;16.80;99.90;;;;;;2088859;28;20033;-72
2021/09/27 06:08:31;;;;;;;25.63;19.85;;;16.80;99.90;;;;;;2088842;28;20064;-72
2021/09/27 06:10:05;;;;;;;21.73;18.50;;;16.80;99.90;;;;;;2089244;28;20052;-72
2021/09/27 06:11:36;;;;;;;24.80;19.42;;;16.90;99.90;;;;;;2089171;28;20029;-71
2021/09/27 06:13:03;;;;;;;19.88;17.75;;;16.90;99.90;;;;;;2089258;28;20099;-68
2021/09/27 06:14:06;;;;;;;19.85;17.55;;;16.90;99.90;;;;;;2088817;28;20032;-70
2021/09/27 06:15:10;;;;;;;21.98;18.55;;;16.90;99.90;;;;;;2088674;28;20418;-70
2021/09/27 06:16:18;;;;;;;21.40;19.10;;;16.90;99.90;;;;;;2089232;28;20502;-70
2021/09/27 06:17:50;;;;;;;20.38;18.17;;;16.90;99.90;;;;;;2088640;28;20403;-70
2021/09/27 06:19:21;;;;;;;21.10;18.73;;;16.90;99.90;;;;;;2084269;28;20252;-73
2021/09/27 06:20:53;;;;;;;22.88;18.92;;;16.90;99.90;;;;;;2088489;28;20035;-73
2021/09/27 06:22:06;;;;;;;23.58;19.58;;;17.00;99.90;;;;;;2088394;28;20033;-72
2021/09/27 06:23:25;;;;;;;21.75;17.98;;;17.00;99.90;;;;;;2088406;28;20037;-72
2021/09/27 06:24:28;;;;;;;22.95;19.67;;;17.00;99.90;;;;;;2088750;28;20056;-72